createdAt,value
2016-06-29T09:04:24.439Z,830
2016-06-29T09:05:22.735Z,700
2016-06-29T09:06:22.775Z,875
2016-06-29T09:07:22.784Z,825
2016-06-29T09:08:23.980Z,865
2016-06-29T09:09:24.221Z,860
2016-06-29T09:10:37.078Z,880
2016-06-29T09:11:23.396Z,670
2016-06-29T09:12:22.840Z,755
2016-06-29T09:13:23.434Z,945
2016-06-29T09:14:22.837Z,935
2016-06-29T09:15:22.231Z,815
2016-06-29T09:16:22.874Z,770
2016-06-29T09:17:23.486Z,885
2016-06-29T09:18:21.694Z,900
2016-06-29T09:19:22.899Z,850
2016-06-29T09:20:23.511Z,885
2016-06-29T09:21:23.545Z,880
2016-06-29T09:22:23.560Z,900
2016-06-29T09:23:22.939Z,815
2016-06-29T09:24:22.937Z,765
2016-06-29T09:25:23.566Z,675
2016-06-29T09:26:23.594Z,640
2016-06-29T09:27:22.964Z,610
2016-06-29T09:28:23.051Z,555
2016-06-29T09:29:22.382Z,585
2016-06-29T09:30:23.007Z,600
2016-06-29T09:31:22.430Z,705
2016-06-29T09:32:23.659Z,700
2016-06-29T09:33:24.255Z,640
2016-06-29T09:34:24.276Z,510
2016-06-29T09:35:23.095Z,455
2016-06-29T09:36:23.105Z,400
2016-06-29T09:37:23.067Z,410
2016-06-29T09:38:23.105Z,630
2016-06-29T09:39:23.125Z,670
2016-06-29T09:40:23.725Z,600
2016-06-29T09:41:23.716Z,675
2016-06-29T09:42:23.775Z,775
2016-06-29T09:43:23.138Z,745
2016-06-29T09:44:23.127Z,845
2016-06-29T09:45:23.783Z,885
2016-06-29T09:46:22.569Z,870
2016-06-29T09:47:23.182Z,870
2016-06-29T09:48:22.661Z,865
2016-06-29T09:49:23.202Z,780
2016-06-29T09:50:22.598Z,775
2016-06-29T09:51:23.242Z,770
2016-06-29T09:52:23.227Z,820
2016-06-29T09:53:24.658Z,755
2016-06-29T09:54:24.479Z,680
2016-06-29T09:55:23.247Z,665
2016-06-29T09:56:23.846Z,710
2016-06-29T09:57:23.267Z,765
2016-06-29T09:58:23.868Z,850
2016-06-29T09:59:22.676Z,825
2016-06-29T10:00:23.914Z,795
2016-06-29T10:01:23.935Z,760
2016-06-29T10:02:25.728Z,830
2016-06-29T10:04:28.262Z,775
2016-06-29T10:05:25.432Z,745
2016-06-29T10:06:24.928Z,680
2016-06-29T10:07:23.637Z,580
2016-06-29T10:08:25.006Z,485
2016-06-29T10:09:24.597Z,375
2016-06-29T10:10:23.398Z,290
2016-06-29T10:11:25.479Z,215
2016-06-29T10:12:25.636Z,180
2016-06-29T10:13:24.514Z,180
2016-06-29T10:14:25.590Z,185
2016-06-29T10:15:22.826Z,185
2016-06-29T10:16:24.892Z,190
2016-06-29T10:17:24.349Z,185
2016-06-29T10:18:38.867Z,170
2016-06-29T10:19:25.308Z,175
2016-06-29T10:21:24.129Z,180
2016-06-29T10:22:24.090Z,190
2016-06-29T10:23:24.096Z,175
2016-06-29T10:24:23.553Z,185
2016-06-29T10:25:22.898Z,170
2016-06-29T10:26:24.289Z,160
2016-06-29T10:27:24.759Z,155
2016-06-29T10:28:39.270Z,165
2016-06-29T10:29:24.533Z,160
2016-06-29T10:30:23.923Z,165
2016-06-29T10:31:24.074Z,175
2016-06-29T10:32:25.208Z,200
2016-06-29T10:33:22.994Z,245
2016-06-29T10:34:22.948Z,295
2016-06-29T10:35:24.838Z,330
2016-06-29T10:36:22.949Z,370
2016-06-29T10:37:22.341Z,430
2016-06-29T10:38:22.979Z,495
2016-06-29T10:39:24.799Z,585
2016-06-29T10:40:22.351Z,665
2016-06-29T10:41:23.589Z,725
2016-06-29T10:42:25.070Z,775
2016-06-29T10:44:24.217Z,775
2016-06-29T10:45:24.202Z,740
2016-06-29T10:47:24.815Z,840
2016-06-29T10:48:24.658Z,910
2016-06-29T10:49:23.612Z,910
2016-06-29T10:50:24.234Z,845
2016-06-29T10:51:25.950Z,695
2016-06-29T10:52:22.405Z,600
2016-06-29T10:53:24.249Z,500
2016-06-29T10:54:23.511Z,410
2016-06-29T10:55:23.045Z,360
2016-06-29T10:56:23.029Z,340
2016-06-29T10:57:24.870Z,320
2016-06-29T10:58:23.050Z,305
2016-06-29T10:59:24.312Z,290
2016-06-29T11:00:24.285Z,285
2016-06-29T11:01:23.081Z,280
2016-06-29T11:02:24.275Z,280
2016-06-29T11:03:23.681Z,280
2016-06-29T11:04:23.787Z,280
2016-06-29T11:05:24.298Z,275
2016-06-29T11:06:24.302Z,275
2016-06-29T11:07:23.713Z,270
2016-06-29T11:08:24.922Z,270
2016-06-29T11:09:24.314Z,270
2016-06-29T11:10:23.732Z,275
2016-06-29T11:11:23.727Z,270
2016-06-29T11:12:23.771Z,275
2016-06-29T11:13:24.323Z,275
2016-06-29T11:14:23.728Z,280
2016-06-29T11:15:23.739Z,280
2016-06-29T11:16:23.778Z,280
2016-06-29T11:17:24.364Z,280
2016-06-29T11:18:23.207Z,280
2016-06-29T11:19:23.764Z,285
2016-06-29T11:20:24.359Z,290
2016-06-29T11:21:27.435Z,280
2016-06-29T11:22:26.899Z,285
2016-06-29T11:23:25.618Z,285
2016-06-29T11:24:23.163Z,290
2016-06-29T11:25:23.791Z,290
2016-06-29T11:26:23.176Z,290
2016-06-29T11:27:23.915Z,285
2016-06-29T11:28:23.766Z,280
2016-06-29T11:29:24.378Z,280
2016-06-29T11:30:25.309Z,275
2016-06-29T11:31:25.678Z,270
2016-06-29T11:32:24.581Z,270
2016-06-29T11:33:24.428Z,270
2016-06-29T11:34:24.120Z,265
2016-06-29T11:35:24.225Z,260
2016-06-29T11:36:24.859Z,260
2016-06-29T11:37:38.547Z,260
2016-06-29T11:39:39.543Z,255
2016-06-29T11:40:23.914Z,255
2016-06-29T11:41:39.713Z,255
2016-06-29T11:42:22.629Z,255
2016-06-29T11:43:24.472Z,265
2016-06-29T11:44:25.037Z,265
2016-06-29T11:45:23.849Z,275
2016-06-29T11:46:25.059Z,285
2016-06-29T11:47:25.562Z,285
2016-06-29T11:48:24.916Z,285
2016-06-29T11:49:25.019Z,280
2016-06-29T11:50:23.938Z,275
2016-06-29T11:51:24.963Z,270
2016-06-29T11:52:24.474Z,270
2016-06-29T11:53:25.087Z,260
2016-06-29T11:54:23.862Z,255
2016-06-29T11:55:23.900Z,260
2016-06-29T11:56:24.542Z,260
2016-06-29T11:57:24.511Z,260
2016-06-29T11:58:23.295Z,260
2016-06-29T11:59:25.147Z,260
2016-06-29T12:00:25.148Z,265
2016-06-29T12:01:24.549Z,250
2016-06-29T12:02:24.523Z,250
2016-06-29T12:03:24.504Z,245
2016-06-29T12:04:25.246Z,245
2016-06-29T12:05:25.135Z,240
2016-06-29T12:06:25.147Z,235
2016-06-29T12:07:24.538Z,235
2016-06-29T12:08:24.556Z,230
2016-06-29T12:09:24.553Z,230
2016-06-29T12:10:24.534Z,230
2016-06-29T12:11:23.947Z,230
2016-06-29T12:12:23.970Z,225
2016-06-29T12:13:24.562Z,225
2016-06-29T12:14:23.341Z,225
2016-06-29T12:15:23.344Z,220
2016-06-29T12:16:23.956Z,215
2016-06-29T12:17:23.367Z,215
2016-06-29T12:18:24.583Z,220
2016-06-29T12:19:25.179Z,220
2016-06-29T12:20:23.986Z,225
2016-06-29T12:21:24.580Z,225
2016-06-29T12:22:24.581Z,225
2016-06-29T12:23:23.390Z,225
2016-06-29T12:24:23.996Z,225
2016-06-29T12:25:25.237Z,225
2016-06-29T12:26:24.623Z,225
2016-06-29T12:27:24.004Z,235
2016-06-29T12:28:23.402Z,240
2016-06-29T12:29:25.237Z,240
2016-06-29T12:30:25.211Z,240
2016-06-29T12:31:24.051Z,245
2016-06-29T12:32:25.232Z,255
2016-06-29T12:33:24.623Z,265
2016-06-29T12:34:24.715Z,290
2016-06-29T12:35:24.066Z,350
2016-06-29T12:36:24.693Z,350
2016-06-29T12:37:24.650Z,345
2016-06-29T12:38:25.275Z,285
2016-06-29T12:39:26.910Z,250
2016-06-29T12:41:25.219Z,245
2016-06-29T12:42:24.597Z,245
2016-06-29T12:43:24.698Z,245
2016-06-29T12:44:23.751Z,255
2016-06-29T12:45:23.483Z,255
2016-06-29T12:46:24.693Z,260
2016-06-29T12:47:23.465Z,265
2016-06-29T12:48:25.910Z,260
2016-06-29T12:49:25.976Z,275
2016-06-29T12:50:24.202Z,285
2016-06-29T12:51:25.354Z,285
2016-06-29T12:52:24.731Z,295
2016-06-29T12:53:24.845Z,320
2016-06-29T12:54:25.351Z,315
2016-06-29T12:55:53.266Z,300
2016-06-29T12:56:39.910Z,325
2016-06-29T12:57:24.424Z,350
2016-06-29T12:58:25.378Z,360
2016-06-29T12:59:24.132Z,355
2016-06-29T13:00:24.167Z,330
2016-06-29T13:01:25.821Z,320
2016-06-29T13:02:23.750Z,325
2016-06-29T13:03:24.199Z,345
2016-06-29T13:04:25.291Z,410
2016-06-29T13:05:25.875Z,455
2016-06-29T13:07:25.543Z,565
2016-06-29T13:08:23.579Z,510
2016-06-29T13:09:24.599Z,495
2016-06-29T13:10:24.203Z,525
2016-06-29T13:11:24.862Z,485
2016-06-29T13:12:24.882Z,475
2016-06-29T13:13:24.235Z,470
2016-06-29T13:14:23.630Z,430
2016-06-29T13:15:23.627Z,400
2016-06-29T13:16:24.247Z,385
2016-06-29T13:17:24.306Z,395
2016-06-29T13:18:24.263Z,360
2016-06-29T13:19:24.291Z,320
2016-06-29T13:20:24.286Z,275
2016-06-29T13:21:24.900Z,210
2016-06-29T13:22:24.875Z,150
2016-06-29T13:23:24.311Z,115
2016-06-29T13:24:24.292Z,105
2016-06-29T13:25:23.897Z,95
2016-06-29T13:26:25.529Z,90
2016-06-29T13:27:25.528Z,105
2016-06-29T13:28:24.316Z,120
2016-06-29T13:29:24.947Z,135
2016-06-29T13:30:24.335Z,145
2016-06-29T13:31:23.764Z,165
2016-06-29T13:32:24.340Z,185
2016-06-29T13:33:24.342Z,200
2016-06-29T13:34:24.970Z,215
2016-06-29T13:35:25.001Z,260
2016-06-29T13:36:24.392Z,295
2016-06-29T13:37:25.009Z,325
2016-06-29T13:38:25.591Z,360
2016-06-29T13:39:25.009Z,390
2016-06-29T13:40:25.606Z,390
2016-06-29T13:41:24.395Z,375
2016-06-29T13:42:23.808Z,390
2016-06-29T13:43:24.415Z,425
2016-06-29T13:44:25.066Z,440
2016-06-29T13:45:25.045Z,450
2016-06-29T13:46:23.829Z,490
2016-06-29T13:47:24.434Z,535
2016-06-29T13:48:25.071Z,545
2016-06-29T13:49:24.436Z,580
2016-06-29T13:50:24.465Z,620
2016-06-29T13:51:25.071Z,660
2016-06-29T13:52:25.065Z,675
2016-06-29T13:53:25.718Z,615
2016-06-29T13:54:25.726Z,520
2016-06-29T13:55:24.485Z,450
2016-06-29T13:56:25.694Z,415
2016-06-29T13:57:26.001Z,395
2016-06-29T13:58:26.420Z,375
2016-06-29T13:59:25.726Z,365
2016-06-29T14:00:26.439Z,395
2016-06-29T14:01:26.741Z,390
2016-06-29T14:02:23.918Z,390
2016-06-29T14:03:24.907Z,370
2016-06-29T14:04:25.493Z,325
2016-06-29T14:05:25.748Z,275
2016-06-29T14:06:25.201Z,250
2016-06-29T14:07:26.428Z,245
2016-06-29T14:08:26.431Z,300
2016-06-29T14:09:25.750Z,370
2016-06-29T14:10:24.036Z,460
2016-06-29T14:11:25.788Z,510
2016-06-29T14:12:26.095Z,440
2016-06-29T14:13:25.292Z,340
2016-06-29T14:14:25.990Z,330
2016-06-29T14:15:25.459Z,345
2016-06-29T14:16:24.413Z,325
2016-06-29T14:17:26.102Z,395
2016-06-29T14:18:25.735Z,475
2016-06-29T14:19:24.611Z,545
2016-06-29T14:20:25.238Z,630
2016-06-29T14:21:24.019Z,665
2016-06-29T14:22:23.470Z,590
2016-06-29T14:23:25.587Z,550
2016-06-29T14:24:25.029Z,495
2016-06-29T14:25:54.396Z,430
2016-06-29T14:26:26.095Z,425
2016-06-29T14:27:24.651Z,380
2016-06-29T14:28:24.919Z,305
2016-06-29T14:29:24.729Z,275
2016-06-29T14:30:24.673Z,275
2016-06-29T14:31:25.905Z,295
2016-06-29T14:32:25.937Z,275
2016-06-29T14:33:23.501Z,245
2016-06-29T14:34:24.706Z,240
2016-06-29T14:35:25.328Z,245
2016-06-29T14:36:24.734Z,245
2016-06-29T14:37:25.342Z,240
2016-06-29T14:38:25.955Z,235
2016-06-29T14:39:24.148Z,230
2016-06-29T14:40:23.528Z,230
2016-06-29T14:41:24.768Z,230
2016-06-29T14:42:25.396Z,240
2016-06-29T14:43:24.754Z,245
2016-06-29T14:44:26.003Z,260
2016-06-29T14:45:25.383Z,270
2016-06-29T14:46:24.184Z,275
2016-06-29T14:47:24.185Z,275
2016-06-29T14:48:26.050Z,265
2016-06-29T14:49:24.837Z,260
2016-06-29T14:50:25.429Z,275
2016-06-29T14:51:25.464Z,280
2016-06-29T14:52:24.208Z,285
2016-06-29T14:53:24.827Z,290
2016-06-29T14:54:24.838Z,300
2016-06-29T14:55:24.843Z,315
2016-06-29T14:56:25.462Z,325
2016-06-29T14:57:25.474Z,325
2016-06-29T14:58:24.873Z,320
2016-06-29T14:59:25.474Z,315
2016-06-29T15:00:24.867Z,320
2016-06-29T15:01:24.869Z,320
2016-06-29T15:02:24.297Z,310
2016-06-29T15:03:24.266Z,305
2016-06-29T15:04:26.162Z,305
2016-06-29T15:05:25.507Z,305
2016-06-29T15:06:26.135Z,310
2016-06-29T15:07:24.284Z,315
2016-06-29T15:08:26.138Z,325
2016-06-29T15:09:24.903Z,330
2016-06-29T15:10:24.307Z,345
2016-06-29T15:11:25.561Z,355
2016-06-29T15:12:25.538Z,360
2016-06-29T15:13:25.566Z,360
2016-06-29T15:14:25.572Z,360
2016-06-29T15:15:24.377Z,355
2016-06-29T15:17:27.301Z,370
2016-06-29T15:18:27.222Z,380
2016-06-29T15:19:26.188Z,375
2016-06-29T15:20:25.595Z,365
2016-06-29T15:21:26.305Z,350
2016-06-29T15:22:25.017Z,330
2016-06-29T15:23:25.010Z,315
2016-06-29T15:24:25.004Z,300
2016-06-29T15:25:27.332Z,285
2016-06-29T15:26:27.693Z,280
2016-06-29T15:27:25.584Z,280
2016-06-29T15:28:25.511Z,275
2016-06-29T15:29:25.059Z,270
2016-06-29T15:30:26.421Z,270
2016-06-29T15:31:24.457Z,275
2016-06-29T15:32:41.574Z,275
2016-06-29T15:33:39.814Z,270
2016-06-29T15:34:25.327Z,270
2016-06-29T15:35:25.704Z,260
2016-06-29T15:36:24.716Z,255
2016-06-29T15:37:25.689Z,245
2016-06-29T15:38:25.820Z,240
2016-06-29T15:39:25.705Z,240
2016-06-29T15:40:26.373Z,235
2016-06-29T15:41:41.138Z,235
2016-06-29T15:42:27.841Z,235
2016-06-29T15:43:24.994Z,230
2016-06-29T15:44:25.379Z,235
2016-06-29T15:45:25.106Z,235
2016-06-29T15:46:24.528Z,235
2016-06-29T15:47:25.126Z,235
2016-06-29T15:48:25.138Z,235
2016-06-29T15:49:25.789Z,230
2016-06-29T15:50:25.751Z,235
2016-06-29T15:51:26.386Z,230
2016-06-29T15:52:24.546Z,225
2016-06-29T15:53:25.769Z,220
2016-06-29T15:54:25.163Z,215
2016-06-29T15:55:25.808Z,210
2016-06-29T15:56:26.379Z,205
2016-06-29T15:57:26.414Z,200
2016-06-29T15:58:26.434Z,200
2016-06-29T15:59:25.825Z,195
2016-06-29T16:00:25.813Z,195
2016-06-29T16:01:25.190Z,190
2016-06-29T16:02:25.201Z,190
2016-06-29T16:03:26.449Z,190
2016-06-29T16:04:25.803Z,185
2016-06-29T16:05:25.253Z,185
2016-06-29T16:06:25.244Z,185
2016-06-29T16:07:26.452Z,180
2016-06-29T16:08:24.626Z,180
2016-06-29T16:09:25.862Z,180
2016-06-29T16:10:25.899Z,180
2016-06-29T16:11:24.666Z,180
2016-06-29T16:12:25.250Z,180
2016-06-29T16:13:25.918Z,185
2016-06-29T16:14:24.673Z,185
2016-06-29T16:15:25.886Z,185
2016-06-29T16:16:24.699Z,180
2016-06-29T16:17:26.506Z,180
2016-06-29T16:18:25.282Z,180
2016-06-29T16:19:24.061Z,180
2016-06-29T16:20:25.343Z,180
2016-06-29T16:21:26.542Z,180
2016-06-29T16:22:24.714Z,180
2016-06-29T16:23:26.519Z,180
2016-06-29T16:24:25.291Z,180
2016-06-29T16:25:24.698Z,180
2016-06-29T16:26:25.315Z,180
2016-06-29T16:27:24.688Z,180
2016-06-29T16:28:25.909Z,180
2016-06-29T16:29:25.933Z,180
2016-06-29T16:30:25.343Z,180
2016-06-29T16:31:26.584Z,180
2016-06-29T16:32:25.358Z,180
2016-06-29T16:33:25.379Z,180
2016-06-29T16:34:25.967Z,180
2016-06-29T16:35:24.718Z,180
2016-06-29T16:36:25.338Z,180
2016-06-29T16:37:26.570Z,180
2016-06-29T16:38:25.966Z,180
2016-06-29T16:39:24.129Z,180
2016-06-29T16:40:25.976Z,180
2016-06-29T16:41:24.767Z,180
2016-06-29T16:42:25.984Z,175
2016-06-29T16:43:25.377Z,175
2016-06-29T16:44:26.621Z,175
2016-06-29T16:45:25.424Z,175
2016-06-29T16:46:26.005Z,175
2016-06-29T16:47:25.402Z,175
2016-06-29T16:48:26.014Z,175
2016-06-29T16:49:25.436Z,175
2016-06-29T16:50:25.419Z,175
2016-06-29T16:51:26.234Z,175
2016-06-29T16:52:40.883Z,175
2016-06-29T16:53:25.678Z,180
2016-06-29T16:54:26.778Z,175
2016-06-29T16:55:26.283Z,175
2016-06-29T16:56:25.430Z,175
2016-06-29T16:57:26.057Z,175
2016-06-29T16:58:25.441Z,175
2016-06-29T16:59:25.464Z,170
2016-06-29T17:00:40.543Z,170
2016-06-29T17:01:25.742Z,170
2016-06-29T17:02:28.080Z,170
2016-06-29T17:03:39.757Z,170
2016-06-29T17:04:25.656Z,170
2016-06-29T17:05:24.864Z,170
2016-06-29T17:06:25.518Z,170
2016-06-29T17:07:25.050Z,170
2016-06-29T17:08:24.899Z,170
2016-06-29T17:09:25.532Z,170
2016-06-29T17:10:26.723Z,170
2016-06-29T17:11:24.909Z,170
2016-06-29T17:12:24.884Z,170
2016-06-29T17:13:26.775Z,165
2016-06-29T17:14:25.498Z,165
2016-06-29T17:15:24.910Z,165
2016-06-29T17:16:24.914Z,165
2016-06-29T17:17:24.917Z,165
2016-06-29T17:18:26.734Z,165
2016-06-29T17:19:24.345Z,165
2016-06-29T17:20:25.533Z,160
2016-06-29T17:21:25.557Z,160
2016-06-29T17:22:25.521Z,160
2016-06-29T17:23:25.526Z,160
2016-06-29T17:24:24.937Z,160
2016-06-29T17:25:26.152Z,160
2016-06-29T17:26:25.529Z,160
2016-06-29T17:27:24.921Z,160
2016-06-29T17:28:26.152Z,160
2016-06-29T17:29:24.958Z,160
2016-06-29T17:30:24.937Z,160
2016-06-29T17:31:25.554Z,160
2016-06-29T17:32:26.188Z,160
2016-06-29T17:33:26.795Z,155
2016-06-29T17:34:28.502Z,155
2016-06-29T17:35:29.394Z,155
2016-06-29T17:36:27.963Z,155
2016-06-29T17:37:26.195Z,155
2016-06-29T17:38:26.814Z,150
2016-06-29T17:39:26.209Z,150
2016-06-29T17:40:25.862Z,150
2016-06-29T17:41:25.607Z,150
2016-06-29T17:42:26.808Z,150
2016-06-29T17:43:24.980Z,145
2016-06-29T17:44:29.201Z,145
2016-06-29T17:45:26.209Z,145
2016-06-29T17:46:27.727Z,145
2016-06-29T17:47:26.235Z,145
2016-06-29T17:48:25.617Z,140
2016-06-29T17:49:26.218Z,140
2016-06-29T17:50:26.270Z,140
2016-06-29T17:51:26.404Z,140
2016-06-29T17:52:26.231Z,140
2016-06-29T17:53:26.227Z,140
2016-06-29T17:54:26.867Z,135
2016-06-29T17:55:26.263Z,135
2016-06-29T17:56:25.040Z,135
2016-06-29T17:57:26.242Z,130
2016-06-29T17:58:26.879Z,130
2016-06-29T17:59:25.652Z,130
2016-06-29T18:00:25.676Z,130
2016-06-29T18:01:26.246Z,130
2016-06-29T18:02:25.654Z,125
2016-06-29T18:03:24.507Z,125
2016-06-29T18:04:25.076Z,120
2016-06-29T18:05:25.101Z,120
2016-06-29T18:06:26.901Z,120
2016-06-29T18:07:26.881Z,120
2016-06-29T18:08:26.286Z,120
2016-06-29T18:09:40.943Z,120
2016-06-29T18:10:26.212Z,120
2016-06-29T18:11:26.911Z,120
2016-06-29T18:12:26.187Z,120
2016-06-29T18:13:25.685Z,120
2016-06-29T18:14:25.966Z,115
2016-06-29T18:15:27.406Z,115
2016-06-29T18:16:25.722Z,115
2016-06-29T18:17:26.290Z,115
2016-06-29T18:18:26.235Z,110
2016-06-29T18:19:27.122Z,110
2016-06-29T18:20:27.647Z,110
2016-06-29T18:21:25.727Z,110
2016-06-29T18:22:26.085Z,110
2016-06-29T18:23:25.742Z,110
2016-06-29T18:24:27.035Z,110
2016-06-29T18:25:27.013Z,110
2016-06-29T18:26:25.705Z,105
2016-06-29T18:27:26.937Z,105
2016-06-29T18:28:25.735Z,105
2016-06-29T18:29:26.949Z,105
2016-06-29T18:30:26.333Z,105
2016-06-29T18:31:26.353Z,105
2016-06-29T18:32:25.813Z,100
2016-06-29T18:33:26.367Z,100
2016-06-29T18:34:25.156Z,100
2016-06-29T18:35:26.339Z,100
2016-06-29T18:36:25.715Z,100
2016-06-29T18:37:26.400Z,100
2016-06-29T18:38:26.426Z,100
2016-06-29T18:39:26.361Z,100
2016-06-29T18:40:25.728Z,100
2016-06-29T18:41:26.329Z,100
2016-06-29T18:42:26.373Z,95
2016-06-29T18:43:26.387Z,95
2016-06-29T18:44:26.365Z,90
2016-06-29T18:45:26.380Z,90
2016-06-29T18:46:25.804Z,90
2016-06-29T18:47:25.120Z,85
2016-06-29T18:48:26.381Z,85
2016-06-29T18:49:26.362Z,80
2016-06-29T18:50:26.969Z,80
2016-06-29T18:51:26.352Z,75
2016-06-29T18:52:26.394Z,75
2016-06-29T18:53:28.963Z,75
2016-06-29T18:54:26.651Z,70
2016-06-29T18:55:26.258Z,70
2016-06-29T18:56:27.703Z,70
2016-06-29T18:57:25.792Z,70
2016-06-29T18:58:26.732Z,70
2016-06-29T18:59:25.910Z,70
2016-06-29T19:00:26.378Z,65
2016-06-29T19:01:26.392Z,65
2016-06-29T19:02:28.764Z,60
2016-06-29T19:03:26.821Z,60
2016-06-29T19:04:27.425Z,60
2016-06-29T19:05:26.973Z,55
2016-06-29T19:06:26.412Z,55
2016-06-29T19:07:26.380Z,50
2016-06-29T19:08:26.649Z,50
2016-06-29T19:09:26.027Z,45
2016-06-29T19:10:25.202Z,45
2016-06-29T19:11:26.411Z,45
2016-06-29T19:12:26.411Z,40
2016-06-29T19:13:25.798Z,40
2016-06-29T19:14:26.418Z,40
2016-06-29T19:15:26.401Z,35
2016-06-29T19:16:27.061Z,35
2016-06-29T19:17:26.556Z,35
2016-06-29T19:18:27.284Z,30
2016-06-29T19:19:26.799Z,30
2016-06-29T19:20:26.973Z,25
2016-06-29T19:21:27.473Z,25
2016-06-29T19:22:25.796Z,25
2016-06-29T19:23:25.809Z,25
2016-06-29T19:24:27.034Z,20
2016-06-29T19:25:25.799Z,20
2016-06-29T19:26:25.809Z,20
2016-06-29T19:27:41.297Z,20
2016-06-29T19:28:28.738Z,15
2016-06-29T19:29:40.767Z,15
2016-06-29T19:30:26.814Z,15
2016-06-29T19:31:25.828Z,15
2016-06-29T19:32:25.823Z,15
2016-06-29T19:33:26.434Z,10
2016-06-29T19:34:25.226Z,10
2016-06-29T19:35:25.842Z,10
2016-06-29T19:36:25.842Z,5
2016-06-29T19:37:27.016Z,5
2016-06-29T19:38:27.489Z,5
2016-06-29T19:39:27.047Z,5
2016-06-29T19:40:27.842Z,5
2016-06-29T19:41:26.450Z,5
2016-06-29T19:42:27.090Z,0
2016-06-29T19:43:27.066Z,0
2016-06-29T19:44:25.441Z,0
2016-06-29T19:45:26.441Z,0
2016-06-29T19:46:26.465Z,0
2016-06-29T19:47:26.415Z,0
2016-06-29T19:48:26.762Z,0
2016-06-29T19:49:27.058Z,0
2016-06-29T19:50:25.834Z,0
2016-06-29T19:51:26.450Z,0
2016-06-29T19:52:26.651Z,0
2016-06-29T19:53:27.053Z,0
2016-06-29T19:54:27.070Z,0
2016-06-29T19:55:26.421Z,0
2016-06-29T19:56:25.212Z,0
2016-06-29T19:57:27.032Z,0
2016-06-29T19:58:26.425Z,0
2016-06-29T19:59:27.023Z,0
2016-06-29T20:00:25.842Z,0
2016-06-29T20:01:25.196Z,0
2016-06-29T20:02:26.425Z,0
2016-06-29T20:03:25.840Z,0
2016-06-29T20:04:27.067Z,0
2016-06-29T20:05:26.451Z,0
2016-06-29T20:06:27.020Z,0
2016-06-29T20:07:25.837Z,0
2016-06-29T20:08:25.233Z,0
2016-06-29T20:09:25.849Z,0
2016-06-29T20:10:26.424Z,0
2016-06-29T20:11:28.002Z,0
2016-06-29T20:12:30.163Z,0
2016-06-29T20:13:28.297Z,0
2016-06-29T20:14:25.817Z,0
2016-06-29T20:15:25.947Z,0
2016-06-29T20:16:25.813Z,0
2016-06-29T20:17:25.834Z,0
2016-06-29T20:18:26.470Z,0
2016-06-29T20:19:25.859Z,0
2016-06-29T20:20:25.626Z,0
2016-06-29T20:21:28.763Z,0
2016-06-29T20:22:28.137Z,0
2016-06-29T20:23:27.147Z,0
2016-06-29T20:24:27.608Z,0
2016-06-29T20:25:27.255Z,0
2016-06-29T20:26:26.955Z,0
2016-06-29T20:27:24.586Z,0
2016-06-29T20:28:25.202Z,0
2016-06-29T20:29:25.202Z,0
2016-06-29T20:30:25.838Z,0
2016-06-29T20:31:25.835Z,0
2016-06-29T20:32:25.803Z,0
2016-06-29T20:33:25.798Z,0
2016-06-29T20:34:26.408Z,0
2016-06-29T20:35:26.393Z,0
2016-06-29T20:36:25.178Z,0
2016-06-29T20:37:26.403Z,0
2016-06-29T20:38:25.197Z,0
2016-06-29T20:39:25.807Z,0
2016-06-29T20:40:25.797Z,0
2016-06-29T20:41:26.916Z,0
2016-06-29T20:42:26.428Z,0
2016-06-29T20:43:25.816Z,0
2016-06-29T20:44:26.386Z,0
2016-06-29T20:45:26.403Z,0
2016-06-29T20:46:26.588Z,0
2016-06-29T20:47:27.546Z,0
2016-06-29T20:48:41.263Z,0
2016-06-29T20:49:26.230Z,0
2016-06-29T20:50:25.210Z,0
2016-06-29T20:51:25.214Z,0
2016-06-29T20:52:25.765Z,0
2016-06-29T20:53:25.186Z,0
2016-06-29T20:54:25.829Z,0
2016-06-29T20:56:27.542Z,0
2016-06-29T20:57:26.324Z,0
2016-06-29T20:58:26.441Z,0
2016-06-29T20:59:26.403Z,0
2016-06-29T21:00:25.153Z,0
2016-06-29T21:01:26.381Z,0
2016-06-29T21:02:25.771Z,0
2016-06-29T21:03:25.777Z,0
2016-06-29T21:04:26.813Z,0
2016-06-29T21:05:26.381Z,0
2016-06-29T21:06:26.973Z,0
2016-06-29T21:07:25.755Z,0
2016-06-29T21:08:25.161Z,0
2016-06-29T21:09:25.136Z,0
2016-06-29T21:10:26.991Z,0
2016-06-29T21:11:25.203Z,0
2016-06-29T21:12:25.153Z,0
2016-06-29T21:13:27.027Z,0
2016-06-29T21:14:25.166Z,0
2016-06-29T21:15:25.738Z,0
2016-06-29T21:16:26.966Z,0
2016-06-29T21:17:26.388Z,0
2016-06-29T21:18:25.154Z,0
2016-06-29T21:19:25.743Z,0
2016-06-29T21:20:26.347Z,0
2016-06-29T21:21:24.518Z,0
2016-06-29T21:22:25.142Z,0
2016-06-29T21:23:25.734Z,0
2016-06-29T21:24:25.745Z,0
2016-06-29T21:25:25.097Z,0
2016-06-29T21:26:25.111Z,0
2016-06-29T21:27:26.342Z,0
2016-06-29T21:28:26.353Z,0
2016-06-29T21:29:26.966Z,0
2016-06-29T21:30:26.604Z,0
2016-06-29T21:31:26.623Z,0
2016-06-29T21:32:25.290Z,0
2016-06-29T21:33:27.635Z,0
2016-06-29T21:34:27.044Z,0
2016-06-29T21:35:26.327Z,0
2016-06-29T21:36:26.398Z,0
2016-06-29T21:37:25.717Z,0
2016-06-29T21:38:25.707Z,0
2016-06-29T21:39:28.795Z,0
2016-06-29T21:40:29.598Z,0
2016-06-29T21:41:26.617Z,0
2016-06-29T21:42:25.731Z,0
2016-06-29T21:43:26.698Z,0
2016-06-29T21:44:25.710Z,0
2016-06-29T21:45:26.807Z,0
2016-06-29T21:46:26.456Z,0
2016-06-29T21:47:25.690Z,0
2016-06-29T21:48:25.673Z,0
2016-06-29T21:49:26.300Z,0
2016-06-29T21:50:25.709Z,0
2016-06-29T21:51:26.316Z,0
2016-06-29T21:52:26.915Z,0
2016-06-29T21:53:25.066Z,0
2016-06-29T21:54:25.094Z,0
2016-06-29T21:55:25.077Z,0
2016-06-29T21:56:26.305Z,0
2016-06-29T21:57:25.682Z,0
2016-06-29T21:58:26.275Z,0
2016-06-29T21:59:26.898Z,0
2016-06-29T22:00:25.040Z,0
2016-06-29T22:01:26.289Z,0
2016-06-29T22:02:25.657Z,0
2016-06-29T22:03:26.288Z,0
2016-06-29T22:04:28.227Z,0
2016-06-29T22:05:24.865Z,0
2016-06-29T22:06:25.950Z,0
2016-06-29T22:07:40.828Z,0
2016-06-29T22:08:27.358Z,0
2016-06-29T22:09:25.034Z,0
2016-06-29T22:10:25.900Z,0
2016-06-29T22:11:25.291Z,0
2016-06-29T22:12:25.681Z,0
2016-06-29T22:13:26.263Z,0
2016-06-29T22:14:26.894Z,0
2016-06-29T22:15:26.701Z,0
2016-06-29T22:16:26.972Z,0
2016-06-29T22:17:25.048Z,0
2016-06-29T22:18:27.215Z,0
2016-06-29T22:19:25.640Z,0
2016-06-29T22:20:25.146Z,0
2016-06-29T22:21:25.013Z,0
2016-06-29T22:22:25.629Z,0
2016-06-29T22:23:25.004Z,0
2016-06-29T22:24:25.619Z,0
2016-06-29T22:25:26.243Z,0
2016-06-29T22:26:26.830Z,0
2016-06-29T22:27:25.620Z,0
2016-06-29T22:28:25.615Z,0
2016-06-29T22:29:24.401Z,0
2016-06-29T22:30:26.236Z,0
2016-06-29T22:31:25.636Z,0
2016-06-29T22:32:25.623Z,0
2016-06-29T22:33:25.005Z,0
2016-06-29T22:34:25.006Z,0
2016-06-29T22:35:26.208Z,0
2016-06-29T22:36:26.217Z,0
2016-06-29T22:37:26.227Z,0
2016-06-29T22:38:25.602Z,0
2016-06-29T22:39:24.975Z,0
2016-06-29T22:40:26.201Z,0
2016-06-29T22:41:26.235Z,0
2016-06-29T22:42:25.030Z,0
2016-06-29T22:43:25.582Z,0
2016-06-29T22:44:26.825Z,0
2016-06-29T22:45:25.591Z,0
2016-06-29T22:46:25.587Z,0
2016-06-29T22:47:26.225Z,0
2016-06-29T22:48:27.651Z,0
2016-06-29T22:49:29.184Z,0
2016-06-29T22:50:26.913Z,0
2016-06-29T22:51:26.757Z,0
2016-06-29T22:52:25.450Z,0
2016-06-29T22:53:28.778Z,0
2016-06-29T22:54:25.571Z,0
2016-06-29T22:55:26.783Z,0
2016-06-29T22:56:26.791Z,0
2016-06-29T22:57:29.064Z,0
2016-06-29T22:58:27.663Z,0
2016-06-29T22:59:27.158Z,0
2016-06-29T23:00:27.291Z,0
2016-06-29T23:01:25.570Z,0
2016-06-29T23:02:25.586Z,0
2016-06-29T23:03:26.162Z,0
2016-06-29T23:04:25.662Z,0
2016-06-29T23:05:24.362Z,0
2016-06-29T23:06:26.793Z,0
2016-06-29T23:07:26.147Z,0
2016-06-29T23:08:25.541Z,0
2016-06-29T23:09:25.548Z,0
2016-06-29T23:10:25.552Z,0
2016-06-29T23:11:24.919Z,0
2016-06-29T23:12:26.164Z,0
2016-06-29T23:13:26.155Z,0
2016-06-29T23:14:26.167Z,0
2016-06-29T23:15:25.531Z,0
2016-06-29T23:16:26.157Z,0